Flight Track Log - Related Links

Times and Time Zones

All times are in EDT time to prevent confusion due to time zone crossing. See the CSQ965 flight status page for this flight to view local times or setup timezone preferences in your user account.

Time Position Orientation Groundspeed Altitude Reporting Facility
EDT Latitude Longitude Course Direction KTS MPH feet Rate Location/Type
Fri 09:50:10 AM 25.8003 -80.2700 148° Southeast 102 117 600  Level Miami Center
Fri 09:50:59 AM 25.7756 -80.2531 155° Southeast 138 159 1,700 1,418 Climbing Miami Center
Fri 09:52:00 AM 25.7386 -80.2336 152° Southeast 143 165 3,200 1,406 Climbing Miami Center
Fri 09:53:07 AM 25.7014 -80.2117 159° South 140 161 4,700 1,359 Climbing Miami Center
Fri 09:54:08 AM 25.6600 -80.1944 153° Southeast 142 163 6,100 1,279 Climbing Miami Center
Fri 09:55:09 AM 25.6250 -80.1750 153° Southeast 145 167 7,300 590 Climbing Miami Center
Fri 09:56:10 AM 25.5775 -80.1483 156° South 204 235 7,300 760 Level Miami Center
Fri 09:57:39 AM 25.5094 -80.1144 153° Southeast 198 228 9,200 1,128 Climbing Miami Center
Fri 09:58:39 AM 25.4661 -80.0903 156° South 192 221 10,100 950 Climbing Miami Center
Fri 09:59:39 AM 25.4225 -80.0683 154° Southeast 181 208 11,100 900 Climbing Miami Center
Fri 10:00:39 AM 25.3772 -80.0442 154° Southeast 181 208 11,900 450 Climbing Miami Center
Fri 10:01:39 AM 25.3275 -80.0175 149° Southeast 183 211 12,000 100 Climbing Miami Center
Fri 10:02:39 AM 25.2742 -79.9817 152° Southeast 200 230 12,100 50 Climbing Miami Center
Fri 10:03:39 AM 25.2142 -79.9458 166° South 226 260 12,100  Level Miami Center
Fri 10:04:39 AM 25.1478 -79.9281 163° South 238 274 12,100 -50 Level Miami Center
Fri 10:05:39 AM 25.0814 -79.9058 165° South 243 280 12,000 250 Descending Miami Center
Fri 10:06:39 AM 25.0128 -79.8856 162° South 248 285 12,600 600 Climbing Miami Center
Fri 10:07:39 AM 24.9528 -79.8636 161° South 243 280 13,200 650 Climbing Miami Center
Fri 10:08:39 AM 24.8947 -79.8414 164° South 233 268 13,900 800 Climbing Miami Center
Fri 10:09:39 AM 24.8386 -79.8242 161° South 221 254 14,800 550 Climbing Miami Center
Fri 10:10:39 AM 24.7806 -79.8022 160° South 221 254 15,000 100 Climbing Miami Center
Fri 10:11:39 AM 24.7183 -79.7778 159° South 228 262 15,000 50 Level Miami Center
Fri 10:12:39 AM 24.6542 -79.7511 161° South 233 268 15,100  Climbing Miami Center
Fri 10:13:39 AM 24.5878 -79.7267 161° South 246 283 15,000  Descending Miami Center
Fri 10:14:39 AM 24.5233 -79.7025 161° South 246 283 15,100  Climbing Miami Center
Fri 10:15:39 AM 24.4592 -79.6781 160° South 246 283 15,000 -50 Descending Miami Center
Fri 10:16:39 AM 24.3928 -79.6517 160° South 246 283 15,000 50 Level Miami Center
Fri 10:17:39 AM 24.3264 -79.6250 155° Southeast 246 283 15,100  Climbing Miami Center
Fri 10:18:39 AM 24.2600 -79.5917 151° Southeast 251 289 15,000 -50 Descending Miami Center
Fri 10:19:39 AM 24.1981 -79.5539 157° South 251 289 15,000  Level Miami Center
Fri 10:20:39 AM 24.1317 -79.5228 154° Southeast 256 295 15,000 -50 Level Miami Center
Fri 10:21:39 AM 24.0697 -79.4897 154° Southeast 256 295 14,900  Descending Miami Center
Fri 10:22:39 AM 24.0075 -79.4564 162° South 256 295 15,000 100 Climbing Miami Center
Fri 10:23:39 AM 23.9411 -79.4325 164° South 256 295 15,100  Climbing Miami Center
Fri 10:24:39 AM 23.8706 -79.4106 130° Southeast 251 289 15,000 -100 Descending Miami Center
Fri 10:32:15 AM 23.6899 -79.1785 158° South  Level FlightAware Approximate
Fri 10:33:15 AM 23.6305 -79.1517 158° South  Level FlightAware Approximate
Fri 10:34:15 AM 23.5711 -79.1250 158° South  Level FlightAware Approximate
Fri 10:35:15 AM 23.5117 -79.0984 158° South  Level FlightAware Approximate
Fri 10:36:15 AM 23.4523 -79.0717 158° South  Level FlightAware Approximate
Fri 10:37:15 AM 23.3929 -79.0451 158° South  Level FlightAware Approximate
Fri 10:38:15 AM 23.3335 -79.0184 158° South  Level FlightAware Approximate
Fri 10:39:15 AM 23.2740 -78.9919 158° South  Level FlightAware Approximate
Fri 10:40:15 AM 23.2146 -78.9653 158° South  Level FlightAware Approximate
Fri 10:41:15 AM 23.1552 -78.9388 158° South  Level FlightAware Approximate
Fri 10:42:15 AM 23.0957 -78.9122 158° South  Level FlightAware Approximate
Fri 10:43:15 AM 23.0363 -78.8857 158° South  Level FlightAware Approximate
Fri 10:44:15 AM 22.9768 -78.8593 158° South  Level FlightAware Approximate
Fri 10:45:15 AM 22.9174 -78.8328 158° South  Level FlightAware Approximate
Fri 10:46:15 AM 22.8579 -78.8064 158° South  Level FlightAware Approximate
Fri 10:47:15 AM 22.7985 -78.7800 158° South  Level FlightAware Approximate
Fri 10:48:15 AM 22.7390 -78.7536 158° South  Level FlightAware Approximate
Fri 10:49:15 AM 22.6795 -78.7272 158° South  Level FlightAware Approximate
Fri 10:50:15 AM 22.6201 -78.7009 158° South  Level FlightAware Approximate
Fri 10:51:15 AM 22.5606 -78.6746 158° South  Level FlightAware Approximate
Fri 10:52:15 AM 22.5011 -78.6483 158° South  Level FlightAware Approximate
Fri 10:53:15 AM 22.4416 -78.6221 158° South  Level FlightAware Approximate
Fri 10:54:15 AM 22.3821 -78.5958 158° South  Level FlightAware Approximate
Fri 10:55:15 AM 22.3226 -78.5696 158° South  Level FlightAware Approximate
Fri 10:56:15 AM 22.2631 -78.5434 158° South  Level FlightAware Approximate
Fri 10:57:15 AM 22.2036 -78.5172 159° South  Level FlightAware Approximate
Fri 10:58:15 AM 22.1437 -78.4921 159° South  Level FlightAware Approximate
Fri 10:59:15 AM 22.0839 -78.4669 159° South  Level FlightAware Approximate
Fri 11:00:15 AM 22.0240 -78.4417 159° South  Level FlightAware Approximate
Fri 11:01:15 AM 21.9641 -78.4166 159° South  Level FlightAware Approximate
Fri 11:02:15 AM 21.9042 -78.3915 159° South  Level FlightAware Approximate
Fri 11:03:15 AM 21.8444 -78.3664 159° South  Level FlightAware Approximate
Fri 11:04:15 AM 21.7845 -78.3414 159° South  Level FlightAware Approximate
Fri 11:05:15 AM 21.7246 -78.3163 159° South  Level FlightAware Approximate
Fri 11:06:15 AM 21.6647 -78.2913 159° South  Level FlightAware Approximate
Fri 11:07:15 AM 21.6048 -78.2663 159° South  Level FlightAware Approximate
Fri 11:08:15 AM 21.5449 -78.2413 159° South  Level FlightAware Approximate
Fri 11:09:15 AM 21.4850 -78.2164 159° South  Level FlightAware Approximate
Fri 11:10:15 AM 21.4251 -78.1914 159° South  Level FlightAware Approximate
Fri 11:11:15 AM 21.3652 -78.1665 159° South  Level FlightAware Approximate
Fri 11:12:15 AM 21.3052 -78.1416 159° South  Level FlightAware Approximate
Fri 11:13:15 AM 21.2453 -78.1167 159° South  Level FlightAware Approximate
Fri 11:14:15 AM 21.1854 -78.0919 159° South  Level FlightAware Approximate
Fri 11:15:15 AM 21.1255 -78.0670 159° South  Level FlightAware Approximate
Fri 11:16:15 AM 21.0655 -78.0422 159° South  Level FlightAware Approximate
Fri 11:17:15 AM 21.0056 -78.0174 159° South  Level FlightAware Approximate
Fri 11:18:15 AM 20.9457 -77.9927 159° South  Level FlightAware Approximate
Fri 11:19:15 AM 20.8857 -77.9679 159° South  Level FlightAware Approximate
Fri 11:20:15 AM 20.8258 -77.9432 159° South  Level FlightAware Approximate
Fri 11:21:15 AM 20.7658 -77.9185 159° South  Level FlightAware Approximate
Fri 11:22:15 AM 20.7059 -77.8938 159° South  Level FlightAware Approximate
Fri 11:23:15 AM 20.6459 -77.8691 159° South  Level FlightAware Approximate
Fri 11:24:15 AM 20.5859 -77.8444 159° South  Level FlightAware Approximate
Fri 11:25:15 AM 20.5260 -77.8198 159° South  Level FlightAware Approximate
Fri 11:26:15 AM 20.4660 -77.7952 159° South  Level FlightAware Approximate
Fri 11:27:15 AM 20.4060 -77.7706 159° South  Level FlightAware Approximate
Fri 11:28:15 AM 20.3461 -77.7460 159° South  Level FlightAware Approximate
Fri 11:29:15 AM 20.2861 -77.7214 159° South  Level FlightAware Approximate
Fri 11:30:15 AM 20.2261 -77.6969 159° South  Level FlightAware Approximate
Fri 11:31:15 AM 20.1661 -77.6723 159° South  Level FlightAware Approximate
Fri 11:32:15 AM 20.1061 -77.6479 159° South  Level FlightAware Approximate
Fri 11:33:15 AM 20.0462 -77.6234 159° South  Level FlightAware Approximate
Fri 11:34:15 AM 19.9862 -77.5989 159° South  Level FlightAware Approximate
Fri 11:35:15 AM 19.9262 -77.5744 159° South  Level FlightAware Approximate
Fri 11:36:15 AM 19.8662 -77.5500 159° South  Level FlightAware Approximate
Fri 11:37:15 AM 19.8062 -77.5256 159° South  Level FlightAware Approximate
Fri 11:38:15 AM 19.7461 -77.5012 159° South  Level FlightAware Approximate
Fri 11:39:15 AM 19.6861 -77.4769 159° South  Level FlightAware Approximate
Fri 11:40:15 AM 19.6261 -77.4525 159° South  Level FlightAware Approximate
Fri 11:41:15 AM 19.5661 -77.4282 159° South  Level FlightAware Approximate
Fri 11:42:15 AM 19.5061 -77.4038 159° South  Level FlightAware Approximate
Fri 11:43:15 AM 19.4461 -77.3795 159° South  Level FlightAware Approximate
Fri 11:44:15 AM 19.3860 -77.3553 159° South  Level FlightAware Approximate
Fri 11:45:15 AM 19.3260 -77.3310 159° South  Level FlightAware Approximate
Fri 11:46:15 AM 19.2660 -77.3067 159° South  Level FlightAware Approximate
Fri 11:47:15 AM 19.2059 -77.2825 159° South  Level FlightAware Approximate
Fri 11:48:15 AM 19.1459 -77.2583 159° South  Level FlightAware Approximate
Fri 11:49:15 AM 19.0858 -77.2341 159° South  Level FlightAware Approximate
Fri 11:50:15 AM 19.0258 -77.2099 159° South  Level FlightAware Approximate
Fri 11:51:15 AM 18.9657 -77.1858 126° Southeast  Level FlightAware Approximate
Fri 11:52:15 AM 18.9285 -77.1318 161° South  Level FlightAware Approximate
Fri 11:53:15 AM 18.8678 -77.1098 161° South  Level FlightAware Approximate
Fri 11:54:15 AM 18.8070 -77.0877 161° South  Level FlightAware Approximate
Fri 11:55:15 AM 18.7462 -77.0657 161° South  Level FlightAware Approximate
Fri 11:56:15 AM 18.6855 -77.0437 169° South  Level FlightAware Approximate
Fri 11:57:15 AM 18.6256 -77.0318 160° South  Level FlightAware Approximate
Fri 11:58:15 AM 18.5651 -77.0090 155° Southeast  Level FlightAware Approximate
Fri 11:59:15 AM 18.5071 -76.9801 161° South  Level FlightAware Approximate
Fri 12:00:15 PM 18.4464 -76.9581 161° South  Level FlightAware Approximate
Fri 12:01:15 PM 18.3856 -76.9361 161° South  Level FlightAware Approximate
Fri 12:02:15 PM 18.3248 -76.9141 165° South  Level FlightAware Approximate
Fri 12:03:15 PM 18.2642 -76.8970 160° South  Level FlightAware Approximate
Fri 12:04:15 PM 18.2037 -76.8742 157° South  Level FlightAware Approximate
Fri 12:05:15 PM 18.1446 -76.8478 161° South  Level FlightAware Approximate
Fri 12:06:15 PM 18.0837 -76.8261 162° South  Level FlightAware Approximate
Fri 12:07:15 PM 18.0229 -76.8057 162° South  Level FlightAware Approximate
Fri 12:08:15 PM 17.9620 -76.7848 186° South  Level FlightAware Approximate
Fri 12:09:15 PM 17.8981 -76.7914 52° Northeast  Level Estimated
Fri 12:10:15 PM 17.9167 -76.7667 314° West  Level FlightAware Approximate
Fri 12:11:15 PM 17.9611 -76.8154 134° Southeast  Level Estimated
Fri 12:12:15 PM 17.9167 -76.7667 314° West  Level FlightAware Approximate
Fri 12:13:15 PM 17.9611 -76.8154 134° Southeast  Level Estimated
Fri 12:14:15 PM 17.9167 -76.7667 314° West  Level FlightAware Approximate
Fri 12:15:15 PM 17.9611 -76.8154 134° Southeast  Level Estimated
Fri 12:16:15 PM 17.9167 -76.7667 314° West  Level FlightAware Approximate
Fri 12:17:15 PM 17.9611 -76.8154 134° Southeast  Level Estimated
Fri 12:18:15 PM 17.9167 -76.7667 314° West  Level FlightAware Approximate
Fri 12:19:15 PM 17.9611 -76.8154 134° Southeast  Level Estimated
Fri 12:20:15 PM 17.9167 -76.7667 134° Southeast  Level FlightAware Approximate

Login

Don't have an account? Register now (free) for customized features, flight alerts, and more!